Time;durP1;ratioP1;P1;durP2;ratioP2;P2;SDS_P1;SDS_P2;PMS_P1;PMS_P2;Temp;Humidity;BMP_temperature;BMP_pressure;BME280_temperature;BME280_humidity;BME280_pressure;Samples;Min_cycle;Max_cycle;Signal;HPM_P1;HPM_P2
2022/01/17 00:01:35;;;;;;;7.82;1.13;;;5.90;99.90;;;;;;5090570;28;20348;-80
2022/01/17 00:04:01;;;;;;;10.25;1.15;;;5.90;99.90;;;;;;5053724;28;1033997;-80
2022/01/17 00:06:26;;;;;;;15.52;2.88;;;5.90;99.90;;;;;;5090574;28;20123;-80
2022/01/17 00:08:52;;;;;;;9.68;1.02;;;5.90;99.90;;;;;;5091659;28;20047;-80
2022/01/17 00:11:18;;;;;;;7.82;1.05;;;5.80;99.90;;;;;;5091247;28;20402;-80
2022/01/17 00:13:45;;;;;;;9.65;1.25;;;5.70;99.90;;;;;;5074854;28;20517;-82
2022/01/17 00:16:25;;;;;;;8.35;1.70;;;5.70;99.90;;;;;;5091254;28;20043;-80
2022/01/17 00:21:17;;;;;;;12.65;2.20;;;5.60;99.90;;;;;;5091633;28;20138;-80
2022/01/17 00:23:43;;;;;;;9.30;0.95;;;5.60;99.90;;;;;;5090805;28;20040;-80
2022/01/17 00:26:09;;;;;;;12.50;2.63;;;5.60;99.90;;;;;;5091233;28;20058;-80
2022/01/17 00:28:35;;;;;;;9.20;1.88;;;5.50;99.90;;;;;;5090974;28;20123;-81
2022/01/17 00:31:04;;;;;;;8.48;1.00;;;5.50;99.90;;;;;;5091356;28;20185;-81
2022/01/17 00:33:33;;;;;;;17.77;2.03;;;5.40;99.90;;;;;;5090977;28;20411;-81
2022/01/17 00:35:59;;;;;;;11.50;1.23;;;5.40;99.90;;;;;;5090998;28;20052;-81
2022/01/17 00:38:25;;;;;;;6.07;1.67;;;5.40;99.90;;;;;;5091096;28;20047;-81
2022/01/17 00:40:50;;;;;;;8.10;1.55;;;5.30;99.90;;;;;;5090585;28;20036;-81
2022/01/17 00:43:16;;;;;;;14.50;2.55;;;5.30;99.90;;;;;;5090990;28;20052;-80
2022/01/17 00:45:44;;;;;;;6.57;0.65;;;5.30;99.90;;;;;;5091201;28;20040;-81
2022/01/17 00:48:10;;;;;;;14.55;1.88;;;5.40;99.90;;;;;;5091567;28;20120;-81
2022/01/17 00:50:40;;;;;;;3.88;0.80;;;5.40;99.90;;;;;;5090965;28;20503;-82
2022/01/17 00:53:07;;;;;;;9.13;1.38;;;5.40;99.90;;;;;;5091323;28;20115;-80
2022/01/17 00:55:35;;;;;;;9.63;1.60;;;5.50;99.90;;;;;;5090977;28;20066;-81
2022/01/17 00:58:01;;;;;;;7.45;1.33;;;5.50;99.90;;;;;;5091858;28;20040;-81
2022/01/17 01:00:27;;;;;;;6.78;1.30;;;5.50;99.90;;;;;;5091367;28;20546;-81
2022/01/17 01:02:53;;;;;;;11.77;1.27;;;5.50;99.90;;;;;;5091415;28;20093;-81
2022/01/17 01:05:19;;;;;;;11.38;1.67;;;5.60;99.90;;;;;;5095394;28;20047;-80
2022/01/17 01:07:45;;;;;;;10.43;2.42;;;5.60;99.90;;;;;;5104303;28;20044;-80
2022/01/17 01:10:12;;;;;;;9.95;1.08;;;5.60;99.90;;;;;;5107411;28;20050;-81
2022/01/17 01:12:43;;;;;;;12.80;1.67;;;5.70;99.90;;;;;;5104498;28;20085;-81
2022/01/17 01:15:12;;;;;;;7.82;1.70;;;5.70;99.90;;;;;;5106099;28;20043;-81
2022/01/17 01:17:53;;;;;;;11.85;1.75;;;5.70;99.90;;;;;;5107626;28;20048;-80
2022/01/17 01:28:22;;;;;;;10.30;1.33;;;5.70;99.90;;;;;;5077151;28;20045;-81
2022/01/17 01:30:51;;;;;;;16.85;2.50;;;5.70;99.90;;;;;;5076249;28;20033;-81
2022/01/17 01:33:24;;;;;;;6.13;0.88;;;5.70;99.90;;;;;;5076305;28;20060;-81
2022/01/17 01:35:57;;;;;;;9.93;2.00;;;5.70;99.90;;;;;;5075421;28;20055;-81
2022/01/17 01:38:22;;;;;;;8.73;1.92;;;5.70;99.90;;;;;;5093437;28;20044;-81
2022/01/17 01:40:48;;;;;;;9.32;0.88;;;5.70;99.90;;;;;;5095491;28;20052;-81
2022/01/17 01:43:13;;;;;;;9.40;0.80;;;5.70;99.90;;;;;;5095066;28;20126;-80
2022/01/17 01:45:39;;;;;;;9.10;1.85;;;5.70;99.90;;;;;;5094923;28;20051;-81
2022/01/17 01:48:06;;;;;;;9.43;0.75;;;5.70;99.90;;;;;;5094429;28;20070;-80
2022/01/17 01:50:31;;;;;;;16.10;3.70;;;5.70;99.90;;;;;;5094533;28;20048;-81
2022/01/17 01:52:57;;;;;;;12.50;1.65;;;5.70;99.90;;;;;;5094743;28;20062;-81
2022/01/17 01:55:23;;;;;;;5.60;1.38;;;5.70;99.90;;;;;;5094506;28;20044;-81
2022/01/17 01:57:49;;;;;;;7.70;1.15;;;5.70;99.90;;;;;;5094646;28;20052;-81
2022/01/17 02:00:15;;;;;;;10.05;1.42;;;5.70;99.90;;;;;;5077649;28;20715;-81
2022/01/17 02:02:41;;;;;;;11.13;1.10;;;5.70;99.90;;;;;;5094273;28;20432;-81
2022/01/17 02:05:08;;;;;;;8.65;1.10;;;5.70;99.90;;;;;;5093885;28;20169;-80
2022/01/17 02:07:34;;;;;;;6.38;1.52;;;5.70;99.90;;;;;;5076993;28;20063;-79
2022/01/17 02:10:00;;;;;;;9.95;1.30;;;5.70;99.90;;;;;;5073466;28;20040;-80
2022/01/17 02:12:28;;;;;;;15.02;1.67;;;5.60;99.90;;;;;;5073001;28;20075;-79
2022/01/17 02:14:55;;;;;;;8.20;0.73;;;5.60;99.90;;;;;;5072548;28;20044;-80
2022/01/17 02:17:23;;;;;;;9.60;1.27;;;5.60;99.90;;;;;;5071863;28;20071;-80
2022/01/17 02:19:57;;;;;;;7.82;1.55;;;5.70;99.90;;;;;;5072262;28;20445;-80
2022/01/17 02:22:22;;;;;;;9.93;1.88;;;5.60;99.90;;;;;;5088391;28;20580;-79
2022/01/17 02:24:48;;;;;;;4.95;0.60;;;5.60;99.90;;;;;;5091931;28;20063;-79
2022/01/17 02:27:13;;;;;;;10.25;1.85;;;5.50;99.90;;;;;;5092074;28;20046;-80
2022/01/17 02:29:39;;;;;;;8.55;1.27;;;5.50;99.90;;;;;;5092122;28;20062;-80
2022/01/17 02:32:05;;;;;;;11.00;1.70;;;5.50;99.90;;;;;;5091861;28;20101;-79
2022/01/17 02:34:31;;;;;;;9.43;1.23;;;5.50;99.90;;;;;;5092518;28;20040;-80
2022/01/17 02:36:56;;;;;;;8.50;1.00;;;5.50;99.90;;;;;;5091537;28;20032;-81
2022/01/17 02:39:22;;;;;;;14.00;1.58;;;5.50;99.90;;;;;;5078772;28;20036;-79
2022/01/17 02:41:49;;;;;;;9.40;1.73;;;5.40;99.90;;;;;;5092082;28;20120;-79
2022/01/17 02:44:16;;;;;;;5.15;1.40;;;5.40;99.90;;;;;;5074931;28;20098;-80
2022/01/17 02:46:41;;;;;;;8.20;1.70;;;5.40;99.90;;;;;;5091743;28;20039;-80
2022/01/17 02:49:08;;;;;;;13.27;1.83;;;5.40;99.90;;;;;;5091949;28;20051;-80
2022/01/17 02:51:35;;;;;;;12.23;1.98;;;5.40;99.90;;;;;;5074687;28;20481;-80
2022/01/17 02:54:01;;;;;;;10.25;1.70;;;5.40;99.90;;;;;;5091360;28;20047;-80
2022/01/17 02:56:27;;;;;;;7.68;1.85;;;5.30;99.90;;;;;;5091713;28;20052;-82
2022/01/17 02:58:53;;;;;;;12.90;1.83;;;5.30;99.90;;;;;;5091957;28;20134;-80
2022/01/17 03:01:22;;;;;;;11.07;2.95;;;5.30;99.90;;;;;;5091359;28;20128;-80
2022/01/17 03:03:48;;;;;;;11.00;1.15;;;5.20;99.90;;;;;;5091673;28;20044;-81
2022/01/17 03:06:15;;;;;;;12.32;1.10;;;5.30;99.90;;;;;;5091484;28;20040;-80
2022/01/17 03:08:42;;;;;;;5.75;1.30;;;5.30;99.90;;;;;;5091458;28;20047;-81
2022/01/17 03:11:12;;;;;;;10.10;1.17;;;5.30;99.90;;;;;;5090847;28;20347;-81
2022/01/17 03:13:39;;;;;;;17.60;1.08;;;5.30;99.90;;;;;;5091361;28;20040;-80
2022/01/17 03:16:09;;;;;;;9.68;1.10;;;5.30;99.90;;;;;;5091066;28;20044;-80
2022/01/17 03:18:39;;;;;;;17.17;2.03;;;5.30;99.90;;;;;;5091326;28;20048;-81
2022/01/17 03:21:08;;;;;;;6.93;1.00;;;5.40;99.90;;;;;;5091239;28;20119;-81
2022/01/17 03:23:34;;;;;;;12.77;1.88;;;5.40;99.90;;;;;;5090834;28;20525;-80
2022/01/17 03:26:00;;;;;;;9.55;1.02;;;5.40;99.90;;;;;;5090854;28;20547;-80
2022/01/17 03:28:26;;;;;;;8.75;1.38;;;5.40;99.90;;;;;;5091219;28;20092;-80
2022/01/17 03:30:53;;;;;;;13.05;1.60;;;5.40;99.90;;;;;;5091175;28;20532;-80
2022/01/17 03:33:19;;;;;;;6.47;1.10;;;5.40;99.90;;;;;;5091481;28;20051;-81
2022/01/17 03:35:45;;;;;;;23.60;3.40;;;5.40;99.90;;;;;;5091328;28;20577;-81
2022/01/17 03:38:16;;;;;;;9.32;1.00;;;5.40;99.90;;;;;;5091357;28;20052;-79
2022/01/17 03:40:46;;;;;;;15.48;1.90;;;5.40;99.90;;;;;;5093075;28;20120;-81
2022/01/17 03:43:12;;;;;;;7.63;1.17;;;5.50;99.90;;;;;;5082793;28;20047;-80
2022/01/17 03:45:37;;;;;;;21.08;3.00;;;5.50;99.90;;;;;;5073653;28;20035;-81
2022/01/17 03:48:03;;;;;;;16.42;1.70;;;5.50;99.90;;;;;;5090940;28;20119;-79
2022/01/17 03:50:29;;;;;;;12.25;2.53;;;5.50;99.90;;;;;;5090671;28;20054;-79
2022/01/17 03:52:55;;;;;;;7.05;1.00;;;5.50;99.90;;;;;;5090732;28;20123;-80
2022/01/17 03:55:22;;;;;;;10.80;1.65;;;5.50;99.90;;;;;;5090838;28;20505;-81
2022/01/17 03:57:48;;;;;;;11.95;2.17;;;5.60;99.90;;;;;;5090525;28;20040;-81
2022/01/17 04:00:24;;;;;;;11.25;2.13;;;5.60;99.90;;;;;;5090737;28;20119;-81
2022/01/17 04:02:52;;;;;;;6.15;1.10;;;5.60;99.90;;;;;;5090749;28;20129;-80
2022/01/17 04:05:17;;;;;;;10.32;0.98;;;5.60;99.90;;;;;;5090735;28;20053;-80
2022/01/17 04:07:43;;;;;;;10.60;1.98;;;5.60;99.90;;;;;;5090437;28;20512;-80
2022/01/17 04:10:09;;;;;;;8.98;0.80;;;5.80;99.90;;;;;;5091568;28;20040;-81
2022/01/17 04:12:35;;;;;;;10.80;1.50;;;5.60;99.90;;;;;;5090277;28;20039;-81
2022/01/17 04:15:00;;;;;;;7.55;1.05;;;5.70;99.90;;;;;;5089981;28;20127;-79
2022/01/17 04:17:28;;;;;;;16.75;3.17;;;5.60;99.90;;;;;;5090163;28;20044;-79
2022/01/17 04:19:59;;;;;;;10.23;2.08;;;5.60;99.90;;;;;;5090706;28;20048;-83
2022/01/17 04:22:26;;;;;;;10.48;1.02;;;5.60;99.90;;;;;;5090034;28;20086;-80
2022/01/17 04:24:51;;;;;;;8.95;0.60;;;5.60;99.90;;;;;;5090127;28;20071;-83
2022/01/17 04:27:17;;;;;;;6.78;1.63;;;5.50;99.90;;;;;;5089695;28;20067;-81
2022/01/17 04:29:42;;;;;;;11.63;1.20;;;5.50;99.90;;;;;;5090301;28;20039;-83
2022/01/17 04:32:08;;;;;;;5.18;1.25;;;5.50;99.90;;;;;;5090360;28;20128;-83
2022/01/17 04:34:34;;;;;;;10.52;4.13;;;5.50;99.90;;;;;;5090691;28;20036;-83
2022/01/17 04:37:02;;;;;;;17.52;1.42;;;5.50;99.90;;;;;;5073245;28;20504;-83
2022/01/17 04:39:27;;;;;;;7.22;1.17;;;5.50;99.90;;;;;;5075047;28;20511;-83
2022/01/17 04:41:53;;;;;;;9.85;0.93;;;5.50;99.90;;;;;;5093279;28;20047;-82
2022/01/17 04:47:03;;;;;;;17.20;2.08;;;5.60;99.90;;;;;;5093551;28;20116;-83
2022/01/17 04:49:29;;;;;;;9.48;2.17;;;5.60;99.90;;;;;;5094086;28;20047;-83
2022/01/17 04:51:55;;;;;;;9.20;0.75;;;5.70;99.90;;;;;;5077225;28;20028;-82
2022/01/17 04:54:40;;;;;;;7.40;0.80;;;5.70;99.90;;;;;;5093768;28;20044;-82
2022/01/17 04:57:07;;;;;;;14.02;1.27;;;5.80;99.90;;;;;;5077644;28;20124;-83
2022/01/17 04:59:34;;;;;;;7.68;1.58;;;5.80;99.90;;;;;;5093925;28;20036;-83
2022/01/17 05:01:59;;;;;;;4.63;0.90;;;5.80;99.90;;;;;;5094074;28;20533;-83
2022/01/17 05:04:25;;;;;;;8.52;1.13;;;5.80;99.90;;;;;;5093419;28;20033;-83
2022/01/17 05:06:50;;;;;;;10.43;1.42;;;5.80;99.90;;;;;;5093105;28;20032;-82
2022/01/17 05:09:16;;;;;;;5.95;1.17;;;5.90;99.90;;;;;;5076894;28;20047;-83
2022/01/17 05:11:42;;;;;;;12.45;1.77;;;5.90;99.90;;;;;;5093391;28;20042;-82
2022/01/17 05:14:09;;;;;;;6.78;0.63;;;5.90;99.90;;;;;;5093360;28;20089;-83
2022/01/17 05:16:40;;;;;;;12.80;1.73;;;6.00;99.90;;;;;;5093749;28;20075;-83
2022/01/17 05:21:49;;;;;;;6.63;1.40;;;6.00;99.90;;;;;;5093420;28;20047;-83
2022/01/17 05:24:15;;;;;;;7.03;1.13;;;6.00;99.90;;;;;;5093106;28;20047;-82
2022/01/17 05:26:41;;;;;;;10.95;1.80;;;6.10;99.90;;;;;;5092808;28;20040;-83
2022/01/17 05:29:07;;;;;;;8.35;2.25;;;6.10;99.90;;;;;;5092870;28;20045;-83
2022/01/17 05:31:33;;;;;;;8.88;1.60;;;6.10;99.90;;;;;;5076118;28;20032;-81
2022/01/17 05:33:58;;;;;;;8.13;1.35;;;6.10;99.90;;;;;;5076367;28;20085;-83
2022/01/17 05:36:24;;;;;;;9.15;1.17;;;6.10;99.90;;;;;;5093010;28;20166;-81
2022/01/17 05:38:52;;;;;;;8.82;1.52;;;6.20;99.90;;;;;;5076035;28;20074;-83
2022/01/17 05:41:18;;;;;;;7.07;0.90;;;6.20;99.90;;;;;;5092685;28;20044;-83
2022/01/17 05:43:43;;;;;;;8.50;2.13;;;6.20;99.90;;;;;;5092589;28;20035;-83
2022/01/17 05:46:09;;;;;;;8.73;1.65;;;6.20;99.90;;;;;;5092859;28;20039;-83
2022/01/17 05:48:35;;;;;;;8.00;1.58;;;6.20;99.90;;;;;;5092524;28;20039;-82
2022/01/17 05:51:01;;;;;;;8.40;1.80;;;6.20;99.90;;;;;;5093829;28;20085;-83
2022/01/17 05:53:27;;;;;;;12.20;1.67;;;6.40;99.90;;;;;;5093392;28;20043;-82
2022/01/17 05:55:52;;;;;;;9.45;1.15;;;6.30;99.90;;;;;;5093587;28;20044;-83
2022/01/17 05:58:18;;;;;;;12.98;1.70;;;6.30;99.90;;;;;;5093979;28;20062;-83
2022/01/17 06:00:43;;;;;;;7.43;1.05;;;6.30;99.90;;;;;;5093515;28;20418;-83
2022/01/17 06:03:09;;;;;;;9.55;2.60;;;6.30;99.90;;;;;;5093546;28;20082;-82
2022/01/17 06:05:35;;;;;;;13.82;3.50;;;6.30;99.90;;;;;;5093845;28;20127;-78
2022/01/17 06:08:00;;;;;;;10.15;1.52;;;6.30;99.90;;;;;;5092823;28;20043;-82
2022/01/17 06:10:26;;;;;;;20.95;1.98;;;6.40;99.90;;;;;;5091863;28;20036;-82
2022/01/17 06:12:51;;;;;;;9.07;2.35;;;6.40;99.90;;;;;;5092641;28;20044;-80
2022/01/17 06:15:18;;;;;;;9.93;2.13;;;6.40;99.90;;;;;;5093091;28;20044;-82
2022/01/17 06:17:44;;;;;;;9.00;1.80;;;6.40;99.90;;;;;;5093091;28;20050;-82
2022/01/17 06:20:10;;;;;;;8.40;2.35;;;6.40;99.90;;;;;;5092769;28;20040;-81
2022/01/17 06:22:36;;;;;;;13.18;1.60;;;6.40;99.90;;;;;;5093372;28;20067;-81
2022/01/17 06:25:03;;;;;;;12.57;2.10;;;6.40;99.90;;;;;;5092866;28;20136;-82
2022/01/17 06:27:29;;;;;;;12.50;1.92;;;6.40;99.90;;;;;;5092590;28;20043;-81
2022/01/17 06:29:56;;;;;;;9.48;1.92;;;6.40;99.90;;;;;;5093399;28;20407;-81
2022/01/17 06:32:21;;;;;;;7.03;1.67;;;6.40;99.90;;;;;;5092764;28;20040;-82
2022/01/17 06:34:47;;;;;;;8.70;1.73;;;6.40;99.90;;;;;;5092866;28;20047;-82
2022/01/17 06:37:13;;;;;;;16.30;2.47;;;6.40;99.90;;;;;;5093134;28;20074;-82
2022/01/17 06:39:39;;;;;;;9.55;3.05;;;6.40;99.90;;;;;;5092646;28;20326;-81
2022/01/17 06:42:05;;;;;;;9.07;2.05;;;6.40;99.90;;;;;;5092852;28;20437;-82
2022/01/17 06:44:30;;;;;;;10.25;2.72;;;6.40;99.90;;;;;;5093081;28;20088;-83
2022/01/17 06:46:56;;;;;;;8.55;3.95;;;6.40;99.90;;;;;;5092366;28;20044;-81
2022/01/17 06:49:21;;;;;;;11.88;2.67;;;6.40;99.90;;;;;;5093185;28;20043;-83
2022/01/17 06:51:47;;;;;;;15.57;3.63;;;6.40;99.90;;;;;;5092850;28;20559;-82
2022/01/17 06:54:12;;;;;;;12.77;2.33;;;6.40;99.90;;;;;;5092952;28;20043;-83
2022/01/17 06:56:43;;;;;;;12.82;2.88;;;6.40;99.90;;;;;;5092354;28;20410;-82
2022/01/17 06:59:10;;;;;;;9.18;3.10;;;6.30;99.90;;;;;;5093729;28;20106;-82
2022/01/17 07:01:38;;;;;;;16.58;2.78;;;6.30;99.90;;;;;;5091537;28;20576;-82
2022/01/17 07:04:04;;;;;;;10.98;2.80;;;6.30;99.90;;;;;;5091965;28;20406;-83
2022/01/17 07:06:30;;;;;;;11.38;3.10;;;6.20;99.90;;;;;;5091886;28;20032;-82
2022/01/17 07:08:56;;;;;;;12.13;2.47;;;6.20;99.90;;;;;;5075319;28;20044;-81
2022/01/17 07:11:21;;;;;;;10.90;2.90;;;6.10;99.90;;;;;;5092016;28;20138;-82
2022/01/17 07:13:48;;;;;;;14.95;2.35;;;6.10;99.90;;;;;;5075058;28;20093;-82
2022/01/17 07:16:13;;;;;;;19.50;3.53;;;6.10;99.90;;;;;;5091753;28;20455;-83
2022/01/17 07:18:39;;;;;;;6.88;2.40;;;6.10;99.90;;;;;;5091957;28;20082;-82
2022/01/17 07:21:05;;;;;;;9.48;2.47;;;6.20;99.90;;;;;;5075150;28;20043;-82
2022/01/17 07:23:30;;;;;;;16.35;3.05;;;6.20;99.90;;;;;;5091939;28;20040;-83
2022/01/17 07:25:56;;;;;;;16.08;5.07;;;6.20;99.90;;;;;;5091134;28;20085;-82
2022/01/17 07:28:23;;;;;;;14.63;2.65;;;6.30;99.90;;;;;;5091887;28;20118;-83
2022/01/17 07:30:49;;;;;;;21.45;3.10;;;6.30;99.90;;;;;;5091587;28;20138;-84
2022/01/17 07:33:15;;;;;;;14.45;3.30;;;6.40;99.90;;;;;;5075383;28;20476;-83
2022/01/17 07:35:41;;;;;;;13.60;2.97;;;6.40;99.90;;;;;;5091517;28;20051;-84
2022/01/17 07:38:06;;;;;;;15.38;3.22;;;6.50;99.90;;;;;;5074502;28;20039;-83
2022/01/17 07:40:34;;;;;;;18.00;5.70;;;6.50;99.90;;;;;;5091322;28;20071;-83
2022/01/17 07:43:00;;;;;;;14.98;2.90;;;6.50;99.90;;;;;;5091286;28;20044;-83
2022/01/17 07:45:27;;;;;;;16.65;3.60;;;6.50;99.90;;;;;;5090908;28;20521;-84
2022/01/17 07:50:24;;;;;;;13.65;2.95;;;6.60;99.90;;;;;;5091435;28;20039;-83
2022/01/17 07:52:51;;;;;;;9.60;2.92;;;6.60;99.90;;;;;;5091424;28;20092;-82
2022/01/17 07:55:18;;;;;;;10.57;2.78;;;6.60;99.90;;;;;;5091613;28;20064;-83
2022/01/17 07:57:44;;;;;;;13.82;2.92;;;6.60;99.90;;;;;;5091224;28;20048;-84
2022/01/17 08:00:18;;;;;;;13.70;3.72;;;6.70;99.90;;;;;;5091049;28;20084;-83
2022/01/17 08:02:44;;;;;;;12.05;3.55;;;6.70;99.90;;;;;;5090742;28;20118;-83
2022/01/17 08:05:14;;;;;;;15.43;3.60;;;6.70;99.90;;;;;;5091369;28;20079;-83
2022/01/17 08:07:40;;;;;;;15.77;3.65;;;6.70;99.90;;;;;;5073895;28;20501;-84
2022/01/17 08:10:12;;;;;;;14.98;2.97;;;6.80;99.90;;;;;;5073886;28;20032;-84
2022/01/17 08:12:38;;;;;;;17.25;4.22;;;6.80;99.90;;;;;;5074398;28;20441;-84
2022/01/17 08:15:05;;;;;;;20.15;5.10;;;6.70;99.90;;;;;;5093158;28;20061;-84
2022/01/17 08:17:31;;;;;;;28.05;5.28;;;6.70;99.90;;;;;;5094606;28;20040;-84
2022/01/17 08:19:56;;;;;;;22.80;4.22;;;6.70;99.90;;;;;;5094969;28;20047;-84
2022/01/17 08:22:22;;;;;;;16.30;2.83;;;6.70;99.90;;;;;;5077847;28;20453;-83
2022/01/17 08:24:47;;;;;;;16.08;3.30;;;6.70;99.90;;;;;;5078088;28;20044;-83
2022/01/17 08:27:13;;;;;;;18.02;3.53;;;6.80;99.90;;;;;;5095086;28;20122;-84
2022/01/17 08:29:38;;;;;;;23.40;3.53;;;6.80;99.90;;;;;;5077825;28;20081;-84
2022/01/17 08:32:05;;;;;;;16.15;3.28;;;6.80;99.90;;;;;;5094838;28;20064;-83
2022/01/17 08:34:32;;;;;;;12.70;3.08;;;6.80;99.90;;;;;;5094670;28;20040;-84
2022/01/17 08:36:58;;;;;;;15.07;3.30;;;6.90;99.90;;;;;;5077868;28;20395;-83
2022/01/17 08:39:24;;;;;;;20.95;3.53;;;6.90;99.90;;;;;;5094913;28;20475;-81
2022/01/17 08:41:51;;;;;;;18.73;4.10;;;6.90;99.90;;;;;;5094441;28;20053;-82
2022/01/17 08:44:19;;;;;;;20.45;4.68;;;6.90;99.90;;;;;;5094145;28;20089;-84
2022/01/17 08:46:45;;;;;;;19.52;4.90;;;6.90;99.90;;;;;;5077101;28;20543;-83
2022/01/17 08:49:11;;;;;;;16.33;4.35;;;7.00;99.90;;;;;;5094312;28;20032;-83
2022/01/17 08:51:37;;;;;;;32.55;4.75;;;7.00;99.90;;;;;;5094354;28;20040;-84
2022/01/17 08:54:03;;;;;;;20.67;3.25;;;7.00;99.90;;;;;;5077412;28;20040;-82
2022/01/17 08:56:30;;;;;;;33.53;5.25;;;7.00;99.90;;;;;;5093848;28;20123;-84
2022/01/17 08:58:57;;;;;;;15.52;2.72;;;7.10;99.90;;;;;;5093951;28;20044;-84
2022/01/17 09:01:23;;;;;;;18.40;3.85;;;7.10;99.90;;;;;;5094131;28;20486;-84
2022/01/17 09:03:49;;;;;;;23.83;3.83;;;7.10;99.90;;;;;;5077308;28;20487;-84
2022/01/17 09:06:15;;;;;;;23.60;5.43;;;7.10;99.90;;;;;;5093654;28;20043;-83
2022/01/17 09:08:42;;;;;;;17.65;3.53;;;7.20;99.90;;;;;;5093903;28;20032;-84
2022/01/17 09:11:07;;;;;;;20.30;4.22;;;7.10;99.90;;;;;;5093851;28;20036;-82
2022/01/17 09:13:33;;;;;;;18.75;5.00;;;7.20;99.90;;;;;;5093856;28;20135;-84
2022/01/17 09:15:59;;;;;;;21.98;3.80;;;7.20;99.90;;;;;;5093735;28;20521;-83
2022/01/17 09:18:25;;;;;;;18.77;4.60;;;7.30;99.90;;;;;;5093909;28;20513;-84
2022/01/17 09:20:51;;;;;;;21.38;5.70;;;7.30;99.90;;;;;;5093675;28;20040;-84
2022/01/17 09:23:18;;;;;;;14.90;3.42;;;7.40;99.90;;;;;;5094069;28;20083;-83
2022/01/17 09:25:44;;;;;;;20.35;3.78;;;7.50;99.90;;;;;;5093040;28;20504;-85
2022/01/17 09:28:10;;;;;;;19.40;4.07;;;7.60;99.90;;;;;;5093121;28;20035;-84
2022/01/17 09:30:36;;;;;;;21.05;4.32;;;7.60;99.90;;;;;;5093599;28;20032;-84
2022/01/17 09:33:03;;;;;;;14.52;2.30;;;7.70;99.90;;;;;;5093636;28;20262;-84
2022/01/17 09:35:29;;;;;;;19.55;4.70;;;7.80;99.90;;;;;;5094225;28;20537;-83
2022/01/17 09:37:55;;;;;;;16.67;3.60;;;7.90;99.90;;;;;;5093139;28;20051;-84
2022/01/17 09:40:20;;;;;;;19.00;4.85;;;7.90;99.90;;;;;;5093448;28;20044;-83
2022/01/17 09:42:47;;;;;;;23.38;5.72;;;8.00;99.90;;;;;;5093305;28;20040;-84
2022/01/17 09:45:16;;;;;;;17.13;5.05;;;8.10;99.90;;;;;;5092989;28;20064;-84
2022/01/17 09:47:44;;;;;;;22.33;4.90;;;8.30;99.90;;;;;;5093744;28;20036;-83
2022/01/17 09:50:13;;;;;;;23.17;4.78;;;8.30;99.90;;;;;;5076682;28;20441;-84
2022/01/17 09:52:45;;;;;;;18.88;4.13;;;8.40;99.90;;;;;;5093471;28;20240;-82
2022/01/17 09:55:23;;;;;;;26.10;6.20;;;8.50;99.90;;;;;;5093721;28;20131;-83
2022/01/17 09:57:52;;;;;;;24.88;5.63;;;8.60;99.90;;;;;;5093362;28;20741;-84
2022/01/17 10:00:26;;;;;;;20.92;6.25;;;8.60;99.90;;;;;;5092978;28;20043;-83
2022/01/17 10:02:54;;;;;;;25.75;6.20;;;8.70;99.90;;;;;;5092742;28;20048;-82
2022/01/17 10:05:20;;;;;;;18.40;5.22;;;8.70;99.90;;;;;;5092788;28;20048;-85
2022/01/17 10:07:56;;;;;;;21.75;4.75;;;8.80;99.90;;;;;;5093019;28;20161;-82
2022/01/17 10:10:43;;;;;;;31.23;4.85;;;8.80;99.90;;;;;;5092591;28;20040;-82
2022/01/17 10:13:29;;;;;;;21.63;5.75;;;8.80;99.90;;;;;;5092817;28;20060;-83
2022/01/17 10:16:19;;;;;;;21.48;5.05;;;8.90;99.90;;;;;;5078646;28;20108;-85
2022/01/17 10:18:59;;;;;;;28.63;7.63;;;8.90;99.90;;;;;;5086343;28;20052;-81
2022/01/17 10:21:44;;;;;;;15.05;3.35;;;8.90;99.90;;;;;;5095057;28;20478;-83
2022/01/17 10:24:28;;;;;;;25.13;5.30;;;9.00;99.90;;;;;;5094494;28;20058;-82
2022/01/17 10:35:08;;;;;;;;;;;9.10;99.90;;;;;;5045328;28;20053;-81
2022/01/17 10:37:34;;;;;;;23.67;4.65;;;9.10;99.90;;;;;;5095982;28;19916;-83
2022/01/17 10:40:10;;;;;;;20.52;5.25;;;9.10;99.90;;;;;;5080644;28;20054;-81
2022/01/17 10:42:45;;;;;;;21.63;5.43;;;9.20;99.90;;;;;;5095753;28;20044;-81
2022/01/17 10:45:18;;;;;;;25.42;5.80;;;9.20;99.90;;;;;;5096807;28;20027;-82
2022/01/17 10:47:45;;;;;;;17.90;4.30;;;9.20;99.90;;;;;;5095236;28;20074;-82
2022/01/17 10:50:27;;;;;;;19.83;3.75;;;9.30;99.90;;;;;;5097733;28;20032;-83
2022/01/17 10:52:56;;;;;;;18.40;5.63;;;9.40;99.90;;;;;;5098521;28;20402;-83
2022/01/17 10:55:25;;;;;;;29.23;5.53;;;9.40;99.90;;;;;;5080093;28;20044;-83
2022/01/17 10:57:57;;;;;;;22.13;3.58;;;9.50;99.90;;;;;;5096270;28;20498;-82
2022/01/17 11:00:26;;;;;;;39.00;8.30;;;9.50;99.90;;;;;;5096068;28;20143;-84
2022/01/17 11:02:54;;;;;;;17.50;4.45;;;9.40;99.90;;;;;;5076356;28;20594;-83
2022/01/17 11:05:22;;;;;;;23.25;5.85;;;9.40;99.90;;;;;;5076459;28;20377;-82
2022/01/17 11:07:51;;;;;;;32.25;6.05;;;9.40;99.90;;;;;;5077037;28;20065;-83
2022/01/17 11:10:25;;;;;;;16.23;5.32;;;9.40;99.90;;;;;;5075540;28;20035;-81
2022/01/17 11:12:55;;;;;;;11.50;3.38;;;9.40;99.90;;;;;;5083242;28;20125;-83
2022/01/17 11:15:21;;;;;;;25.40;5.55;;;9.40;99.90;;;;;;5080589;28;20082;-80
2022/01/17 11:17:53;;;;;;;26.10;6.10;;;9.60;99.90;;;;;;5097491;28;20130;-80
2022/01/17 11:20:21;;;;;;;25.95;5.43;;;9.50;99.90;;;;;;5081606;28;20043;-80
2022/01/17 11:22:49;;;;;;;29.58;8.73;;;9.40;99.90;;;;;;5098100;28;20079;-80
2022/01/17 11:25:19;;;;;;;17.38;5.18;;;9.40;99.90;;;;;;5097172;28;20044;-80
2022/01/17 11:27:44;;;;;;;37.10;6.72;;;9.40;99.90;;;;;;5080722;28;20383;-81
2022/01/17 11:30:11;;;;;;;29.80;6.25;;;9.50;99.90;;;;;;5097798;28;20093;-80
2022/01/17 11:32:37;;;;;;;19.52;6.03;;;9.50;99.90;;;;;;5098449;28;20044;-84
2022/01/17 11:35:04;;;;;;;13.07;2.47;;;9.50;99.90;;;;;;5097354;28;20039;-83
2022/01/17 11:37:37;;;;;;;21.83;5.25;;;9.50;99.90;;;;;;5096405;28;20121;-80
2022/01/17 11:40:05;;;;;;;22.23;6.28;;;9.40;99.90;;;;;;5099799;28;20036;-81
2022/01/17 11:42:46;;;;;;;20.88;5.75;;;9.40;99.90;;;;;;5097725;28;20032;-80
2022/01/17 11:45:24;;;;;;;27.73;7.97;;;9.40;99.90;;;;;;5082206;28;20091;-80
2022/01/17 11:47:50;;;;;;;26.25;6.03;;;9.30;99.90;;;;;;5080478;28;20428;-81
2022/01/17 11:50:29;;;;;;;19.52;4.60;;;9.30;99.90;;;;;;5097823;28;20039;-80
2022/01/17 11:52:56;;;;;;;24.35;6.53;;;9.30;99.90;;;;;;5096899;28;20051;-81
2022/01/17 11:55:57;;;;;;;29.05;5.80;;;9.30;99.90;;;;;;5097824;28;20533;-81
2022/01/17 11:58:25;;;;;;;26.63;6.68;;;9.30;99.90;;;;;;5000315;28;20057;-81
2022/01/17 12:00:57;;;;;;;30.95;7.80;;;9.30;99.90;;;;;;5060957;28;20055;-81
2022/01/17 12:03:25;;;;;;;35.15;7.65;;;9.40;99.90;;;;;;5061100;28;20423;-81
2022/01/17 12:05:53;;;;;;;29.83;7.53;;;9.40;99.90;;;;;;5076547;28;20105;-81
2022/01/17 12:08:28;;;;;;;26.48;6.45;;;9.40;99.90;;;;;;5062214;28;20085;-82
2022/01/17 12:11:02;;;;;;;25.42;6.32;;;9.50;99.90;;;;;;5076720;28;20051;-82
2022/01/17 12:13:44;;;;;;;28.83;6.00;;;9.50;99.90;;;;;;5095064;28;20032;-82
2022/01/17 12:16:28;;;;;;;28.05;7.82;;;9.50;99.90;;;;;;5096850;28;20587;-83
2022/01/17 12:18:54;;;;;;;22.58;5.03;;;9.50;99.90;;;;;;5081051;28;20048;-81
2022/01/17 12:21:34;;;;;;;27.48;5.18;;;9.60;99.90;;;;;;5096825;28;20083;-82
2022/01/17 12:24:25;;;;;;;24.25;5.63;;;9.60;99.90;;;;;;5097616;28;20048;-81
2022/01/17 12:27:03;;;;;;;19.40;7.15;;;10.00;99.90;;;;;;5097424;28;20051;-81
2022/01/17 12:29:47;;;;;;;31.05;6.25;;;10.40;99.90;;;;;;5097231;28;20388;-82
2022/01/17 12:32:24;;;;;;;13.55;2.60;;;10.70;99.90;;;;;;5081817;28;20170;-82
2022/01/17 12:34:52;;;;;;;28.67;6.47;;;10.90;99.90;;;;;;5080781;28;20040;-82
2022/01/17 12:37:40;;;;;;;18.50;3.72;;;10.40;99.90;;;;;;5098767;28;20055;-81
2022/01/17 12:40:29;;;;;;;27.02;6.75;;;10.00;99.90;;;;;;5099524;28;20185;-82
2022/01/17 12:43:00;;;;;;;31.20;7.30;;;9.70;99.90;;;;;;5067694;28;20131;-81
2022/01/17 12:45:29;;;;;;;12.02;2.92;;;9.60;99.90;;;;;;5098955;28;20487;-81
2022/01/17 12:47:57;;;;;;;9.20;3.42;;;9.50;99.90;;;;;;5080539;28;20032;-82
2022/01/17 12:50:26;;;;;;;32.33;8.50;;;9.40;99.90;;;;;;5098458;28;20032;-81
2022/01/17 12:52:53;;;;;;;26.23;9.02;;;9.40;99.90;;;;;;5097224;28;20070;-82
2022/01/17 12:55:19;;;;;;;23.15;8.55;;;9.30;99.90;;;;;;5099421;28;20123;-80
2022/01/17 12:57:45;;;;;;;18.48;5.18;;;9.30;99.90;;;;;;5098228;28;20040;-82
2022/01/17 13:00:31;;;;;;;16.13;4.05;;;9.20;99.90;;;;;;5100126;28;20044;-82
2022/01/17 13:02:57;;;;;;;28.20;6.15;;;9.20;99.90;;;;;;5101731;28;20052;-81
2022/01/17 13:05:30;;;;;;;19.98;4.18;;;9.30;99.90;;;;;;5102969;28;20119;-81
2022/01/17 13:07:56;;;;;;;17.67;3.00;;;9.30;99.90;;;;;;5086264;28;20036;-80
2022/01/17 13:10:22;;;;;;;13.68;2.97;;;9.30;99.90;;;;;;5102933;28;20046;-81
2022/01/17 13:12:56;;;;;;;17.10;3.60;;;9.30;99.90;;;;;;5103051;28;20162;-82
2022/01/17 13:15:22;;;;;;;16.92;5.63;;;9.20;99.90;;;;;;5101346;28;20036;-81
2022/01/17 13:17:50;;;;;;;24.83;5.30;;;9.10;99.90;;;;;;5101566;28;20460;-81
2022/01/17 13:20:16;;;;;;;25.10;6.53;;;9.10;99.90;;;;;;5102328;28;20055;-80
2022/01/17 13:22:53;;;;;;;25.98;6.05;;;9.10;99.90;;;;;;5103040;28;20047;-81